sensor_id;sensor_type;location;lat;lon;timestamp;P1;durP1;ratioP1;P2;durP2;ratioP2
12654;SDS011;6392;44.644;11.448;2023-09-30T00:00:07;7.07;;;5.50;;
12654;SDS011;6392;44.644;11.448;2023-09-30T00:02:35;6.57;;;5.20;;
12654;SDS011;6392;44.644;11.448;2023-09-30T00:05:02;9.10;;;4.87;;
12654;SDS011;6392;44.644;11.448;2023-09-30T00:07:30;7.90;;;5.40;;
12654;SDS011;6392;44.644;11.448;2023-09-30T00:09:57;8.60;;;5.60;;
12654;SDS011;6392;44.644;11.448;2023-09-30T00:12:25;7.47;;;5.80;;
12654;SDS011;6392;44.644;11.448;2023-09-30T00:14:52;9.20;;;5.57;;
12654;SDS011;6392;44.644;11.448;2023-09-30T00:17:19;9.17;;;5.20;;
12654;SDS011;6392;44.644;11.448;2023-09-30T00:19:46;9.03;;;6.03;;
12654;SDS011;6392;44.644;11.448;2023-09-30T00:22:13;8.10;;;5.80;;
12654;SDS011;6392;44.644;11.448;2023-09-30T00:24:40;12.47;;;5.87;;
12654;SDS011;6392;44.644;11.448;2023-09-30T00:27:07;7.23;;;5.70;;
12654;SDS011;6392;44.644;11.448;2023-09-30T00:29:36;8.30;;;5.43;;
12654;SDS011;6392;44.644;11.448;2023-09-30T00:32:03;7.70;;;5.43;;
12654;SDS011;6392;44.644;11.448;2023-09-30T00:34:32;8.23;;;4.63;;
12654;SDS011;6392;44.644;11.448;2023-09-30T00:36:59;9.73;;;5.90;;
12654;SDS011;6392;44.644;11.448;2023-09-30T00:39:26;6.17;;;5.07;;
12654;SDS011;6392;44.644;11.448;2023-09-30T00:41:55;7.93;;;5.07;;
12654;SDS011;6392;44.644;11.448;2023-09-30T00:44:23;7.17;;;5.53;;
12654;SDS011;6392;44.644;11.448;2023-09-30T00:46:52;5.40;;;4.70;;
12654;SDS011;6392;44.644;11.448;2023-09-30T00:49:21;7.07;;;5.03;;
12654;SDS011;6392;44.644;11.448;2023-09-30T00:51:49;8.80;;;5.00;;
12654;SDS011;6392;44.644;11.448;2023-09-30T00:54:17;10.10;;;5.60;;
12654;SDS011;6392;44.644;11.448;2023-09-30T00:56:45;7.50;;;5.53;;
12654;SDS011;6392;44.644;11.448;2023-09-30T00:59:13;6.13;;;5.30;;
12654;SDS011;6392;44.644;11.448;2023-09-30T01:01:40;7.27;;;5.33;;
12654;SDS011;6392;44.644;11.448;2023-09-30T01:04:10;6.43;;;5.00;;
12654;SDS011;6392;44.644;11.448;2023-09-30T01:06:38;7.23;;;5.50;;
12654;SDS011;6392;44.644;11.448;2023-09-30T01:09:05;7.97;;;4.90;;
12654;SDS011;6392;44.644;11.448;2023-09-30T01:11:34;10.17;;;6.03;;
12654;SDS011;6392;44.644;11.448;2023-09-30T01:14:01;6.63;;;5.40;;
12654;SDS011;6392;44.644;11.448;2023-09-30T01:16:28;7.60;;;6.17;;
12654;SDS011;6392;44.644;11.448;2023-09-30T01:18:55;7.57;;;5.23;;
12654;SDS011;6392;44.644;11.448;2023-09-30T01:21:24;6.90;;;5.33;;
12654;SDS011;6392;44.644;11.448;2023-09-30T01:23:54;8.60;;;5.67;;
12654;SDS011;6392;44.644;11.448;2023-09-30T01:26:21;5.87;;;5.17;;
12654;SDS011;6392;44.644;11.448;2023-09-30T01:28:48;8.27;;;5.83;;
12654;SDS011;6392;44.644;11.448;2023-09-30T01:31:15;8.43;;;5.40;;
12654;SDS011;6392;44.644;11.448;2023-09-30T01:33:42;6.17;;;4.50;;
12654;SDS011;6392;44.644;11.448;2023-09-30T01:36:10;10.00;;;5.53;;
12654;SDS011;6392;44.644;11.448;2023-09-30T01:38:37;8.40;;;5.30;;
12654;SDS011;6392;44.644;11.448;2023-09-30T01:41:05;6.40;;;5.73;;
12654;SDS011;6392;44.644;11.448;2023-09-30T01:43:32;6.00;;;5.40;;
12654;SDS011;6392;44.644;11.448;2023-09-30T01:46:01;8.93;;;5.70;;
12654;SDS011;6392;44.644;11.448;2023-09-30T01:48:29;7.90;;;5.67;;
12654;SDS011;6392;44.644;11.448;2023-09-30T01:50:56;6.03;;;5.40;;
12654;SDS011;6392;44.644;11.448;2023-09-30T01:53:23;12.57;;;5.93;;
12654;SDS011;6392;44.644;11.448;2023-09-30T01:55:50;6.67;;;5.13;;
12654;SDS011;6392;44.644;11.448;2023-09-30T01:58:19;9.27;;;6.13;;
12654;SDS011;6392;44.644;11.448;2023-09-30T02:00:46;7.60;;;5.60;;
12654;SDS011;6392;44.644;11.448;2023-09-30T02:03:12;9.70;;;5.33;;
12654;SDS011;6392;44.644;11.448;2023-09-30T02:05:39;7.03;;;5.73;;
12654;SDS011;6392;44.644;11.448;2023-09-30T02:08:07;7.87;;;5.53;;
12654;SDS011;6392;44.644;11.448;2023-09-30T02:10:34;8.23;;;5.93;;
12654;SDS011;6392;44.644;11.448;2023-09-30T02:13:01;6.63;;;5.73;;
12654;SDS011;6392;44.644;11.448;2023-09-30T02:15:32;8.07;;;5.80;;
12654;SDS011;6392;44.644;11.448;2023-09-30T02:17:59;7.63;;;5.90;;
12654;SDS011;6392;44.644;11.448;2023-09-30T02:20:28;6.20;;;5.60;;
12654;SDS011;6392;44.644;11.448;2023-09-30T02:22:55;7.40;;;5.60;;
12654;SDS011;6392;44.644;11.448;2023-09-30T02:25:24;7.10;;;5.43;;
12654;SDS011;6392;44.644;11.448;2023-09-30T02:27:51;9.67;;;5.80;;
12654;SDS011;6392;44.644;11.448;2023-09-30T02:30:18;7.10;;;5.50;;
12654;SDS011;6392;44.644;11.448;2023-09-30T02:32:47;8.60;;;5.53;;
12654;SDS011;6392;44.644;11.448;2023-09-30T02:35:14;9.37;;;6.00;;
12654;SDS011;6392;44.644;11.448;2023-09-30T02:37:41;8.27;;;5.83;;
12654;SDS011;6392;44.644;11.448;2023-09-30T02:40:08;9.33;;;6.27;;
12654;SDS011;6392;44.644;11.448;2023-09-30T02:42:36;7.13;;;6.20;;
12654;SDS011;6392;44.644;11.448;2023-09-30T02:45:03;6.73;;;5.57;;
12654;SDS011;6392;44.644;11.448;2023-09-30T02:47:31;6.83;;;5.47;;
12654;SDS011;6392;44.644;11.448;2023-09-30T02:50:00;6.53;;;5.27;;
12654;SDS011;6392;44.644;11.448;2023-09-30T02:52:27;7.43;;;6.30;;
12654;SDS011;6392;44.644;11.448;2023-09-30T02:54:55;7.13;;;6.07;;
12654;SDS011;6392;44.644;11.448;2023-09-30T02:57:23;9.20;;;5.67;;
12654;SDS011;6392;44.644;11.448;2023-09-30T02:59:50;7.60;;;6.30;;
12654;SDS011;6392;44.644;11.448;2023-09-30T03:02:19;9.93;;;6.10;;
12654;SDS011;6392;44.644;11.448;2023-09-30T03:04:46;7.13;;;6.37;;
12654;SDS011;6392;44.644;11.448;2023-09-30T03:07:17;7.87;;;5.70;;
12654;SDS011;6392;44.644;11.448;2023-09-30T03:09:44;10.53;;;6.30;;
12654;SDS011;6392;44.644;11.448;2023-09-30T03:12:12;8.73;;;6.43;;
12654;SDS011;6392;44.644;11.448;2023-09-30T03:14:39;8.53;;;6.10;;
12654;SDS011;6392;44.644;11.448;2023-09-30T03:17:06;9.10;;;6.77;;
12654;SDS011;6392;44.644;11.448;2023-09-30T03:19:36;10.83;;;6.70;;
12654;SDS011;6392;44.644;11.448;2023-09-30T03:22:04;6.37;;;5.77;;
12654;SDS011;6392;44.644;11.448;2023-09-30T03:24:32;9.20;;;6.50;;
12654;SDS011;6392;44.644;11.448;2023-09-30T03:27:00;10.87;;;6.40;;
12654;SDS011;6392;44.644;11.448;2023-09-30T03:29:27;9.40;;;6.80;;
12654;SDS011;6392;44.644;11.448;2023-09-30T03:31:54;7.10;;;6.20;;
12654;SDS011;6392;44.644;11.448;2023-09-30T03:34:21;7.77;;;6.37;;
12654;SDS011;6392;44.644;11.448;2023-09-30T03:36:48;7.93;;;6.13;;
12654;SDS011;6392;44.644;11.448;2023-09-30T03:39:15;7.10;;;5.80;;
12654;SDS011;6392;44.644;11.448;2023-09-30T03:41:52;7.57;;;5.97;;
12654;SDS011;6392;44.644;11.448;2023-09-30T03:44:21;7.20;;;5.87;;
12654;SDS011;6392;44.644;11.448;2023-09-30T03:46:48;6.30;;;5.70;;
12654;SDS011;6392;44.644;11.448;2023-09-30T03:49:16;8.23;;;5.80;;
12654;SDS011;6392;44.644;11.448;2023-09-30T03:51:45;9.00;;;6.73;;
12654;SDS011;6392;44.644;11.448;2023-09-30T03:54:12;6.07;;;5.50;;
12654;SDS011;6392;44.644;11.448;2023-09-30T03:56:39;8.47;;;6.00;;
12654;SDS011;6392;44.644;11.448;2023-09-30T03:59:08;9.37;;;5.90;;
12654;SDS011;6392;44.644;11.448;2023-09-30T04:01:35;7.30;;;5.87;;
12654;SDS011;6392;44.644;11.448;2023-09-30T04:04:05;9.30;;;5.60;;
12654;SDS011;6392;44.644;11.448;2023-09-30T04:06:34;8.10;;;6.03;;
12654;SDS011;6392;44.644;11.448;2023-09-30T04:09:03;6.17;;;5.57;;
12654;SDS011;6392;44.644;11.448;2023-09-30T04:11:34;6.00;;;5.40;;
12654;SDS011;6392;44.644;11.448;2023-09-30T04:14:02;7.27;;;5.40;;
12654;SDS011;6392;44.644;11.448;2023-09-30T04:16:31;6.83;;;5.50;;
12654;SDS011;6392;44.644;11.448;2023-09-30T04:18:58;6.47;;;5.73;;
12654;SDS011;6392;44.644;11.448;2023-09-30T04:21:25;8.23;;;5.80;;
12654;SDS011;6392;44.644;11.448;2023-09-30T04:23:55;7.33;;;6.10;;
12654;SDS011;6392;44.644;11.448;2023-09-30T04:26:22;8.30;;;5.70;;
12654;SDS011;6392;44.644;11.448;2023-09-30T04:28:50;7.07;;;5.60;;
12654;SDS011;6392;44.644;11.448;2023-09-30T04:31:18;7.73;;;6.07;;
12654;SDS011;6392;44.644;11.448;2023-09-30T04:33:47;6.10;;;5.40;;
12654;SDS011;6392;44.644;11.448;2023-09-30T04:36:16;5.97;;;5.33;;
12654;SDS011;6392;44.644;11.448;2023-09-30T04:38:43;6.07;;;5.10;;
12654;SDS011;6392;44.644;11.448;2023-09-30T04:41:10;7.97;;;5.70;;
12654;SDS011;6392;44.644;11.448;2023-09-30T04:43:38;7.03;;;6.07;;
12654;SDS011;6392;44.644;11.448;2023-09-30T04:46:05;6.20;;;5.40;;
12654;SDS011;6392;44.644;11.448;2023-09-30T04:48:33;10.30;;;6.33;;
12654;SDS011;6392;44.644;11.448;2023-09-30T04:51:05;7.50;;;5.67;;
12654;SDS011;6392;44.644;11.448;2023-09-30T04:53:33;7.97;;;6.20;;
12654;SDS011;6392;44.644;11.448;2023-09-30T04:56:00;9.67;;;6.13;;
12654;SDS011;6392;44.644;11.448;2023-09-30T04:58:27;7.63;;;5.37;;
12654;SDS011;6392;44.644;11.448;2023-09-30T05:00:56;7.93;;;6.13;;
12654;SDS011;6392;44.644;11.448;2023-09-30T05:03:23;8.57;;;6.50;;
12654;SDS011;6392;44.644;11.448;2023-09-30T05:05:50;7.47;;;5.80;;
12654;SDS011;6392;44.644;11.448;2023-09-30T05:08:22;6.40;;;5.80;;
12654;SDS011;6392;44.644;11.448;2023-09-30T05:10:49;6.77;;;5.80;;
12654;SDS011;6392;44.644;11.448;2023-09-30T05:13:16;7.97;;;5.90;;
12654;SDS011;6392;44.644;11.448;2023-09-30T05:15:43;11.03;;;6.37;;
12654;SDS011;6392;44.644;11.448;2023-09-30T05:18:11;7.23;;;6.10;;
12654;SDS011;6392;44.644;11.448;2023-09-30T05:20:38;9.00;;;6.13;;
12654;SDS011;6392;44.644;11.448;2023-09-30T05:23:06;9.40;;;6.67;;
12654;SDS011;6392;44.644;11.448;2023-09-30T05:25:34;7.07;;;6.07;;
12654;SDS011;6392;44.644;11.448;2023-09-30T05:28:02;10.23;;;6.50;;
12654;SDS011;6392;44.644;11.448;2023-09-30T05:30:31;7.77;;;6.53;;
12654;SDS011;6392;44.644;11.448;2023-09-30T05:32:58;7.93;;;6.40;;
12654;SDS011;6392;44.644;11.448;2023-09-30T05:35:25;6.77;;;6.17;;
12654;SDS011;6392;44.644;11.448;2023-09-30T05:37:53;8.30;;;5.90;;
12654;SDS011;6392;44.644;11.448;2023-09-30T05:40:21;6.60;;;5.97;;
12654;SDS011;6392;44.644;11.448;2023-09-30T05:42:51;9.40;;;6.67;;
12654;SDS011;6392;44.644;11.448;2023-09-30T05:45:19;10.87;;;6.47;;
12654;SDS011;6392;44.644;11.448;2023-09-30T05:47:46;6.67;;;5.97;;
12654;SDS011;6392;44.644;11.448;2023-09-30T05:50:13;8.53;;;6.57;;
12654;SDS011;6392;44.644;11.448;2023-09-30T05:52:41;7.73;;;6.20;;
12654;SDS011;6392;44.644;11.448;2023-09-30T05:55:10;8.03;;;6.40;;
12654;SDS011;6392;44.644;11.448;2023-09-30T05:57:37;12.43;;;6.90;;
12654;SDS011;6392;44.644;11.448;2023-09-30T06:00:06;11.13;;;6.47;;
12654;SDS011;6392;44.644;11.448;2023-09-30T06:02:53;12.47;;;6.73;;
12654;SDS011;6392;44.644;11.448;2023-09-30T06:05:20;7.40;;;6.27;;
12654;SDS011;6392;44.644;11.448;2023-09-30T06:07:48;8.10;;;6.77;;
12654;SDS011;6392;44.644;11.448;2023-09-30T06:10:15;9.27;;;7.07;;
12654;SDS011;6392;44.644;11.448;2023-09-30T06:12:44;7.00;;;6.30;;
12654;SDS011;6392;44.644;11.448;2023-09-30T06:15:14;7.70;;;6.43;;
12654;SDS011;6392;44.644;11.448;2023-09-30T06:17:46;11.20;;;7.03;;
12654;SDS011;6392;44.644;11.448;2023-09-30T06:20:13;12.17;;;6.73;;
12654;SDS011;6392;44.644;11.448;2023-09-30T06:22:42;9.23;;;6.53;;
12654;SDS011;6392;44.644;11.448;2023-09-30T06:25:10;8.30;;;6.40;;
12654;SDS011;6392;44.644;11.448;2023-09-30T06:27:38;11.93;;;6.40;;
12654;SDS011;6392;44.644;11.448;2023-09-30T06:30:06;9.90;;;6.77;;
12654;SDS011;6392;44.644;11.448;2023-09-30T06:32:36;7.53;;;5.87;;
12654;SDS011;6392;44.644;11.448;2023-09-30T06:35:03;9.17;;;6.17;;
12654;SDS011;6392;44.644;11.448;2023-09-30T06:37:33;7.90;;;6.00;;
12654;SDS011;6392;44.644;11.448;2023-09-30T06:40:00;10.83;;;6.37;;
12654;SDS011;6392;44.644;11.448;2023-09-30T06:42:29;11.70;;;6.53;;
12654;SDS011;6392;44.644;11.448;2023-09-30T06:44:56;9.40;;;7.17;;
12654;SDS011;6392;44.644;11.448;2023-09-30T06:47:23;13.50;;;6.97;;
12654;SDS011;6392;44.644;11.448;2023-09-30T06:49:52;10.07;;;7.10;;
12654;SDS011;6392;44.644;11.448;2023-09-30T06:52:19;8.30;;;6.67;;
12654;SDS011;6392;44.644;11.448;2023-09-30T06:54:46;10.60;;;7.07;;
12654;SDS011;6392;44.644;11.448;2023-09-30T06:57:13;9.20;;;6.23;;
12654;SDS011;6392;44.644;11.448;2023-09-30T06:59:40;8.50;;;7.47;;
12654;SDS011;6392;44.644;11.448;2023-09-30T07:02:07;10.30;;;6.63;;
12654;SDS011;6392;44.644;11.448;2023-09-30T07:04:34;7.17;;;5.83;;
12654;SDS011;6392;44.644;11.448;2023-09-30T07:07:02;9.23;;;6.47;;
12654;SDS011;6392;44.644;11.448;2023-09-30T07:09:29;9.90;;;6.10;;
12654;SDS011;6392;44.644;11.448;2023-09-30T07:11:56;13.43;;;6.53;;
12654;SDS011;6392;44.644;11.448;2023-09-30T07:14:23;12.13;;;6.83;;
12654;SDS011;6392;44.644;11.448;2023-09-30T07:16:50;9.77;;;6.67;;
12654;SDS011;6392;44.644;11.448;2023-09-30T07:19:17;9.03;;;7.00;;
12654;SDS011;6392;44.644;11.448;2023-09-30T07:21:44;8.20;;;5.63;;
12654;SDS011;6392;44.644;11.448;2023-09-30T07:24:12;10.87;;;6.93;;
12654;SDS011;6392;44.644;11.448;2023-09-30T07:26:40;7.03;;;6.07;;
12654;SDS011;6392;44.644;11.448;2023-09-30T07:29:07;14.37;;;6.57;;
12654;SDS011;6392;44.644;11.448;2023-09-30T07:31:35;11.57;;;6.87;;
12654;SDS011;6392;44.644;11.448;2023-09-30T07:34:02;9.30;;;6.37;;
12654;SDS011;6392;44.644;11.448;2023-09-30T07:36:31;8.53;;;6.83;;
12654;SDS011;6392;44.644;11.448;2023-09-30T07:38:58;8.77;;;7.07;;
12654;SDS011;6392;44.644;11.448;2023-09-30T07:41:27;10.23;;;6.33;;
12654;SDS011;6392;44.644;11.448;2023-09-30T07:44:00;9.93;;;7.20;;
12654;SDS011;6392;44.644;11.448;2023-09-30T07:46:28;7.57;;;5.70;;
12654;SDS011;6392;44.644;11.448;2023-09-30T07:48:55;10.77;;;7.10;;
12654;SDS011;6392;44.644;11.448;2023-09-30T07:51:24;12.27;;;6.87;;
12654;SDS011;6392;44.644;11.448;2023-09-30T07:53:51;7.47;;;6.50;;
12654;SDS011;6392;44.644;11.448;2023-09-30T07:56:18;7.57;;;5.83;;
12654;SDS011;6392;44.644;11.448;2023-09-30T07:58:48;6.47;;;5.80;;
12654;SDS011;6392;44.644;11.448;2023-09-30T08:01:15;7.40;;;5.87;;
12654;SDS011;6392;44.644;11.448;2023-09-30T08:03:43;8.00;;;5.87;;
12654;SDS011;6392;44.644;11.448;2023-09-30T08:06:10;9.00;;;5.67;;
12654;SDS011;6392;44.644;11.448;2023-09-30T08:08:37;7.60;;;5.07;;
12654;SDS011;6392;44.644;11.448;2023-09-30T08:11:04;8.87;;;5.40;;
12654;SDS011;6392;44.644;11.448;2023-09-30T08:13:31;6.33;;;5.57;;
12654;SDS011;6392;44.644;11.448;2023-09-30T08:16:00;6.60;;;5.10;;
12654;SDS011;6392;44.644;11.448;2023-09-30T08:18:27;10.80;;;5.93;;
12654;SDS011;6392;44.644;11.448;2023-09-30T08:20:54;8.20;;;5.43;;
12654;SDS011;6392;44.644;11.448;2023-09-30T08:23:21;6.70;;;5.13;;
12654;SDS011;6392;44.644;11.448;2023-09-30T08:25:48;6.20;;;5.50;;
12654;SDS011;6392;44.644;11.448;2023-09-30T08:28:15;6.03;;;4.83;;
12654;SDS011;6392;44.644;11.448;2023-09-30T08:30:42;5.97;;;5.20;;
12654;SDS011;6392;44.644;11.448;2023-09-30T08:33:11;8.23;;;5.87;;
12654;SDS011;6392;44.644;11.448;2023-09-30T08:35:38;7.60;;;5.70;;
12654;SDS011;6392;44.644;11.448;2023-09-30T08:38:05;6.93;;;5.00;;
12654;SDS011;6392;44.644;11.448;2023-09-30T08:40:32;5.80;;;4.80;;
12654;SDS011;6392;44.644;11.448;2023-09-30T08:42:59;6.23;;;4.97;;
12654;SDS011;6392;44.644;11.448;2023-09-30T08:45:29;7.07;;;5.33;;
12654;SDS011;6392;44.644;11.448;2023-09-30T08:47:59;9.00;;;5.63;;
12654;SDS011;6392;44.644;11.448;2023-09-30T08:50:32;8.00;;;5.60;;
12654;SDS011;6392;44.644;11.448;2023-09-30T08:53:01;9.17;;;4.97;;
12654;SDS011;6392;44.644;11.448;2023-09-30T08:55:29;7.60;;;5.00;;
12654;SDS011;6392;44.644;11.448;2023-09-30T08:58:02;9.23;;;5.10;;
12654;SDS011;6392;44.644;11.448;2023-09-30T09:00:29;7.37;;;5.40;;
12654;SDS011;6392;44.644;11.448;2023-09-30T09:02:57;13.20;;;6.17;;
12654;SDS011;6392;44.644;11.448;2023-09-30T09:05:24;10.17;;;5.57;;
12654;SDS011;6392;44.644;11.448;2023-09-30T09:07:52;7.20;;;4.83;;
12654;SDS011;6392;44.644;11.448;2023-09-30T09:10:19;6.87;;;4.87;;
12654;SDS011;6392;44.644;11.448;2023-09-30T09:12:54;12.67;;;5.80;;
12654;SDS011;6392;44.644;11.448;2023-09-30T09:15:23;6.17;;;5.07;;
12654;SDS011;6392;44.644;11.448;2023-09-30T09:17:51;7.13;;;4.33;;
12654;SDS011;6392;44.644;11.448;2023-09-30T09:20:19;7.80;;;5.77;;
12654;SDS011;6392;44.644;11.448;2023-09-30T09:22:48;8.73;;;5.70;;
12654;SDS011;6392;44.644;11.448;2023-09-30T09:25:20;9.33;;;5.23;;
12654;SDS011;6392;44.644;11.448;2023-09-30T09:27:48;8.97;;;5.20;;
12654;SDS011;6392;44.644;11.448;2023-09-30T09:30:16;7.63;;;5.67;;
12654;SDS011;6392;44.644;11.448;2023-09-30T09:32:59;9.07;;;5.43;;
12654;SDS011;6392;44.644;11.448;2023-09-30T09:35:28;9.40;;;6.10;;
12654;SDS011;6392;44.644;11.448;2023-09-30T09:37:57;10.93;;;6.37;;
12654;SDS011;6392;44.644;11.448;2023-09-30T09:40:27;10.27;;;5.67;;
12654;SDS011;6392;44.644;11.448;2023-09-30T09:42:56;9.40;;;6.00;;
12654;SDS011;6392;44.644;11.448;2023-09-30T09:45:24;11.10;;;7.03;;
12654;SDS011;6392;44.644;11.448;2023-09-30T09:47:53;12.90;;;7.77;;
12654;SDS011;6392;44.644;11.448;2023-09-30T09:50:22;11.30;;;6.83;;
12654;SDS011;6392;44.644;11.448;2023-09-30T09:52:50;13.03;;;7.20;;
12654;SDS011;6392;44.644;11.448;2023-09-30T09:55:19;13.80;;;7.13;;
12654;SDS011;6392;44.644;11.448;2023-09-30T09:57:49;9.90;;;6.37;;
12654;SDS011;6392;44.644;11.448;2023-09-30T10:00:18;8.23;;;6.13;;
12654;SDS011;6392;44.644;11.448;2023-09-30T10:02:47;12.33;;;7.17;;
12654;SDS011;6392;44.644;11.448;2023-09-30T10:05:16;16.80;;;7.80;;
12654;SDS011;6392;44.644;11.448;2023-09-30T10:07:44;11.03;;;7.27;;
12654;SDS011;6392;44.644;11.448;2023-09-30T10:10:22;8.30;;;6.40;;
12654;SDS011;6392;44.644;11.448;2023-09-30T10:12:52;13.43;;;7.43;;
12654;SDS011;6392;44.644;11.448;2023-09-30T10:15:34;11.17;;;7.40;;
12654;SDS011;6392;44.644;11.448;2023-09-30T10:18:08;13.20;;;7.67;;
12654;SDS011;6392;44.644;11.448;2023-09-30T10:20:38;9.93;;;7.77;;
12654;SDS011;6392;44.644;11.448;2023-09-30T10:25:52;6.57;;;5.07;;
12654;SDS011;6392;44.644;11.448;2023-09-30T10:28:37;8.03;;;4.30;;
12654;SDS011;6392;44.644;11.448;2023-09-30T10:31:12;6.63;;;4.40;;
12654;SDS011;6392;44.644;11.448;2023-09-30T10:36:45;11.03;;;5.77;;
12654;SDS011;6392;44.644;11.448;2023-09-30T10:51:12;11.60;;;6.67;;
12654;SDS011;6392;44.644;11.448;2023-09-30T10:53:49;10.13;;;6.57;;
12654;SDS011;6392;44.644;11.448;2023-09-30T10:56:22;10.03;;;6.07;;
12654;SDS011;6392;44.644;11.448;2023-09-30T10:58:52;8.40;;;6.37;;
12654;SDS011;6392;44.644;11.448;2023-09-30T11:01:22;10.37;;;5.33;;
12654;SDS011;6392;44.644;11.448;2023-09-30T11:03:50;8.33;;;5.70;;
12654;SDS011;6392;44.644;11.448;2023-09-30T11:06:28;9.37;;;5.43;;
12654;SDS011;6392;44.644;11.448;2023-09-30T11:08:56;9.23;;;5.63;;
12654;SDS011;6392;44.644;11.448;2023-09-30T11:11:34;9.17;;;5.10;;
12654;SDS011;6392;44.644;11.448;2023-09-30T11:14:02;6.97;;;5.20;;
12654;SDS011;6392;44.644;11.448;2023-09-30T11:16:43;8.03;;;5.77;;
12654;SDS011;6392;44.644;11.448;2023-09-30T11:19:10;7.10;;;5.33;;
12654;SDS011;6392;44.644;11.448;2023-09-30T11:21:38;8.97;;;6.00;;
12654;SDS011;6392;44.644;11.448;2023-09-30T11:24:06;9.93;;;6.60;;
12654;SDS011;6392;44.644;11.448;2023-09-30T11:26:34;8.77;;;6.40;;
12654;SDS011;6392;44.644;11.448;2023-09-30T11:29:05;8.93;;;5.60;;
12654;SDS011;6392;44.644;11.448;2023-09-30T11:31:32;7.93;;;5.20;;
12654;SDS011;6392;44.644;11.448;2023-09-30T11:34:01;9.93;;;4.87;;
12654;SDS011;6392;44.644;11.448;2023-09-30T11:36:30;6.87;;;4.97;;
12654;SDS011;6392;44.644;11.448;2023-09-30T11:38:57;8.53;;;4.93;;
12654;SDS011;6392;44.644;11.448;2023-09-30T11:41:32;8.47;;;5.17;;
12654;SDS011;6392;44.644;11.448;2023-09-30T11:44:04;6.83;;;5.10;;
12654;SDS011;6392;44.644;11.448;2023-09-30T11:49:25;8.30;;;5.80;;
12654;SDS011;6392;44.644;11.448;2023-09-30T11:51:55;11.83;;;5.50;;
12654;SDS011;6392;44.644;11.448;2023-09-30T11:54:30;7.00;;;4.67;;
12654;SDS011;6392;44.644;11.448;2023-09-30T11:57:03;10.80;;;5.23;;
12654;SDS011;6392;44.644;11.448;2023-09-30T11:59:31;7.47;;;4.53;;
12654;SDS011;6392;44.644;11.448;2023-09-30T12:02:01;8.40;;;5.67;;
12654;SDS011;6392;44.644;11.448;2023-09-30T12:04:32;5.30;;;4.43;;
12654;SDS011;6392;44.644;11.448;2023-09-30T12:07:03;7.00;;;4.37;;
12654;SDS011;6392;44.644;11.448;2023-09-30T12:09:32;6.50;;;4.73;;
12654;SDS011;6392;44.644;11.448;2023-09-30T12:12:03;6.57;;;5.10;;
12654;SDS011;6392;44.644;11.448;2023-09-30T12:14:34;6.30;;;4.70;;
12654;SDS011;6392;44.644;11.448;2023-09-30T12:17:08;7.37;;;4.70;;
12654;SDS011;6392;44.644;11.448;2023-09-30T12:19:38;6.33;;;4.23;;
12654;SDS011;6392;44.644;11.448;2023-09-30T12:22:07;10.33;;;4.77;;
12654;SDS011;6392;44.644;11.448;2023-09-30T12:24:39;8.47;;;5.03;;
12654;SDS011;6392;44.644;11.448;2023-09-30T12:27:08;10.67;;;5.30;;
12654;SDS011;6392;44.644;11.448;2023-09-30T12:29:36;8.50;;;4.43;;
12654;SDS011;6392;44.644;11.448;2023-09-30T12:32:04;6.37;;;4.37;;
12654;SDS011;6392;44.644;11.448;2023-09-30T12:34:32;6.53;;;4.70;;
12654;SDS011;6392;44.644;11.448;2023-09-30T12:37:02;8.67;;;5.03;;
12654;SDS011;6392;44.644;11.448;2023-09-30T12:39:30;10.27;;;4.90;;
12654;SDS011;6392;44.644;11.448;2023-09-30T12:41:58;9.33;;;5.27;;
12654;SDS011;6392;44.644;11.448;2023-09-30T12:44:25;7.70;;;5.33;;
12654;SDS011;6392;44.644;11.448;2023-09-30T12:46:53;7.87;;;4.70;;
12654;SDS011;6392;44.644;11.448;2023-09-30T12:49:25;6.00;;;5.00;;
12654;SDS011;6392;44.644;11.448;2023-09-30T12:51:52;5.57;;;4.40;;
12654;SDS011;6392;44.644;11.448;2023-09-30T12:54:23;5.63;;;4.57;;
12654;SDS011;6392;44.644;11.448;2023-09-30T12:56:51;6.77;;;4.33;;
12654;SDS011;6392;44.644;11.448;2023-09-30T12:59:18;8.47;;;4.60;;
12654;SDS011;6392;44.644;11.448;2023-09-30T13:01:49;7.03;;;4.40;;
12654;SDS011;6392;44.644;11.448;2023-09-30T13:04:18;13.13;;;5.07;;
12654;SDS011;6392;44.644;11.448;2023-09-30T13:06:46;5.60;;;4.60;;
12654;SDS011;6392;44.644;11.448;2023-09-30T13:09:16;5.30;;;4.43;;
12654;SDS011;6392;44.644;11.448;2023-09-30T13:11:46;4.83;;;4.00;;
12654;SDS011;6392;44.644;11.448;2023-09-30T13:14:14;5.50;;;3.87;;
12654;SDS011;6392;44.644;11.448;2023-09-30T13:16:43;6.90;;;4.33;;
12654;SDS011;6392;44.644;11.448;2023-09-30T13:19:11;7.37;;;3.97;;
12654;SDS011;6392;44.644;11.448;2023-09-30T13:21:41;7.80;;;4.00;;
12654;SDS011;6392;44.644;11.448;2023-09-30T13:24:09;8.10;;;3.80;;
12654;SDS011;6392;44.644;11.448;2023-09-30T13:26:36;6.60;;;3.80;;
12654;SDS011;6392;44.644;11.448;2023-09-30T13:29:05;5.37;;;3.73;;
12654;SDS011;6392;44.644;11.448;2023-09-30T13:31:34;4.83;;;3.77;;
12654;SDS011;6392;44.644;11.448;2023-09-30T13:34:02;4.73;;;3.63;;
12654;SDS011;6392;44.644;11.448;2023-09-30T13:36:30;4.00;;;3.60;;
12654;SDS011;6392;44.644;11.448;2023-09-30T13:38:57;7.60;;;3.60;;
12654;SDS011;6392;44.644;11.448;2023-09-30T13:41:26;7.40;;;4.60;;
12654;SDS011;6392;44.644;11.448;2023-09-30T13:43:54;7.73;;;3.80;;
12654;SDS011;6392;44.644;11.448;2023-09-30T13:46:25;7.57;;;3.80;;
12654;SDS011;6392;44.644;11.448;2023-09-30T13:48:55;3.97;;;3.57;;
12654;SDS011;6392;44.644;11.448;2023-09-30T13:51:22;4.03;;;3.50;;
12654;SDS011;6392;44.644;11.448;2023-09-30T13:53:54;6.47;;;3.90;;
12654;SDS011;6392;44.644;11.448;2023-09-30T13:56:21;7.47;;;3.90;;
12654;SDS011;6392;44.644;11.448;2023-09-30T13:58:50;4.53;;;3.30;;
12654;SDS011;6392;44.644;11.448;2023-09-30T14:01:18;4.53;;;4.00;;
12654;SDS011;6392;44.644;11.448;2023-09-30T14:03:49;4.33;;;3.77;;
12654;SDS011;6392;44.644;11.448;2023-09-30T14:06:20;4.97;;;3.67;;
12654;SDS011;6392;44.644;11.448;2023-09-30T14:08:48;7.03;;;3.50;;
12654;SDS011;6392;44.644;11.448;2023-09-30T14:11:18;4.90;;;3.80;;
12654;SDS011;6392;44.644;11.448;2023-09-30T14:13:47;7.47;;;4.07;;
12654;SDS011;6392;44.644;11.448;2023-09-30T14:16:14;5.57;;;3.50;;
12654;SDS011;6392;44.644;11.448;2023-09-30T14:18:43;4.97;;;3.40;;
12654;SDS011;6392;44.644;11.448;2023-09-30T14:21:12;4.53;;;3.77;;
12654;SDS011;6392;44.644;11.448;2023-09-30T14:23:46;6.57;;;3.43;;
12654;SDS011;6392;44.644;11.448;2023-09-30T14:26:17;7.67;;;3.60;;
12654;SDS011;6392;44.644;11.448;2023-09-30T14:28:47;4.93;;;3.60;;
12654;SDS011;6392;44.644;11.448;2023-09-30T14:31:23;4.13;;;3.73;;
12654;SDS011;6392;44.644;11.448;2023-09-30T14:34:00;7.73;;;3.43;;
12654;SDS011;6392;44.644;11.448;2023-09-30T14:36:37;4.10;;;3.70;;
12654;SDS011;6392;44.644;11.448;2023-09-30T14:39:23;5.87;;;3.67;;
12654;SDS011;6392;44.644;11.448;2023-09-30T14:41:55;4.67;;;3.00;;
12654;SDS011;6392;44.644;11.448;2023-09-30T14:44:34;5.60;;;3.10;;
12654;SDS011;6392;44.644;11.448;2023-09-30T14:47:04;5.93;;;3.90;;
12654;SDS011;6392;44.644;11.448;2023-09-30T14:49:34;4.57;;;3.67;;
12654;SDS011;6392;44.644;11.448;2023-09-30T14:52:07;4.63;;;3.20;;
12654;SDS011;6392;44.644;11.448;2023-09-30T14:54:38;6.10;;;3.67;;
12654;SDS011;6392;44.644;11.448;2023-09-30T14:57:06;4.67;;;3.70;;
12654;SDS011;6392;44.644;11.448;2023-09-30T14:59:37;6.63;;;3.77;;
12654;SDS011;6392;44.644;11.448;2023-09-30T15:02:13;7.00;;;3.63;;
12654;SDS011;6392;44.644;11.448;2023-09-30T15:04:43;8.80;;;4.63;;
12654;SDS011;6392;44.644;11.448;2023-09-30T15:07:12;5.53;;;4.03;;
12654;SDS011;6392;44.644;11.448;2023-09-30T15:09:44;5.67;;;4.43;;
12654;SDS011;6392;44.644;11.448;2023-09-30T15:12:16;7.23;;;4.07;;
12654;SDS011;6392;44.644;11.448;2023-09-30T15:14:47;9.37;;;4.27;;